Time;durP1;ratioP1;P1;durP2;ratioP2;P2;SDS_P1;SDS_P2;PMS_P1;PMS_P2;Temp;Humidity;BMP_temperature;BMP_pressure;BME280_temperature;BME280_humidity;BME280_pressure;Samples;Min_cycle;Max_cycle;Signal;HPM_P1;HPM_P2
2022/02/21 00:02:03;;;;;;;;;7.50;6.50;;;;;18.85;41.52;100418.81;5097057;27;45942;-52
2022/02/21 00:04:29;;;;;;;;;3.25;3.25;;;;;18.85;41.40;100429.31;5097027;27;45332;-53
2022/02/21 00:06:54;;;;;;;;;4.00;4.00;;;;;18.85;41.10;100429.31;5097172;27;45318;-54
2022/02/21 00:09:19;;;;;;;;;11.00;7.50;;;;;18.82;41.39;100440.00;5097398;27;45345;-53
2022/02/21 00:11:45;;;;;;;;;9.75;6.75;;;;;18.83;41.58;100417.22;5096996;27;45282;-50
2022/02/21 00:14:10;;;;;;;;;7.75;6.25;;;;;18.84;41.11;100438.13;5097257;27;45178;-53
2022/02/21 00:16:36;;;;;;;;;5.00;5.00;;;;;18.84;40.83;100458.31;5097041;27;45255;-53
2022/02/21 00:19:01;;;;;;;;;5.00;5.00;;;;;18.83;40.96;100449.56;5097179;27;45380;-52
2022/02/21 00:21:29;;;;;;;;;5.75;5.75;;;;;18.83;41.11;100462.69;5096683;27;46933;-52
2022/02/21 00:23:54;;;;;;;;;6.00;5.50;;;;;18.82;40.91;100471.50;5096814;27;45870;-53
2022/02/21 00:26:20;;;;;;;;;9.00;5.75;;;;;18.82;40.93;100471.50;5096991;27;45667;-53
2022/02/21 00:28:45;;;;;;;;;5.50;4.25;;;;;18.83;40.71;100486.31;5097256;27;45863;-49
2022/02/21 00:31:11;;;;;;;;;4.25;4.25;;;;;18.79;41.02;100476.94;5097054;27;47135;-50
2022/02/21 00:33:37;;;;;;;;;7.25;5.00;;;;;18.82;40.36;100496.91;5095856;27;45412;-50
2022/02/21 00:36:03;;;;;;;;;6.75;5.25;;;;;18.81;40.43;100496.06;5100348;27;45402;-55
2022/02/21 00:38:28;;;;;;;;;4.75;3.25;;;;;18.82;40.31;100510.88;5100653;27;45574;-51
2022/02/21 00:40:54;;;;;;;;;4.25;4.00;;;;;18.82;40.30;100510.88;5100143;27;46109;-53
2022/02/21 00:43:19;;;;;;;;;9.00;4.25;;;;;18.81;40.34;100509.19;5100156;27;45375;-50
2022/02/21 00:45:44;;;;;;;;;4.75;4.75;;;;;18.79;40.12;100513.69;5100667;27;45379;-49
2022/02/21 00:48:10;;;;;;;;;8.25;3.00;;;;;18.78;39.87;100506.75;5100418;27;45548;-52
2022/02/21 00:50:35;;;;;;;;;4.50;4.00;;;;;18.78;40.13;100516.38;5100039;27;46167;-52
2022/02/21 00:53:01;;;;;;;;;5.00;4.75;;;;;18.80;39.78;100525.88;5099981;27;45351;-51
2022/02/21 00:55:27;;;;;;;;;6.75;4.50;;;;;18.80;39.85;100527.66;5100296;27;45373;-55
2022/02/21 00:57:53;;;;;;;;;3.25;3.00;;;;;18.80;39.72;100530.28;5100361;27;45263;-53
2022/02/21 01:00:19;;;;;;;;;4.25;4.00;;;;;18.78;39.64;100540.88;5099900;27;45440;-52
2022/02/21 01:02:45;;;;;;;;;4.00;3.00;;;;;18.77;39.61;100562.81;5100290;27;45950;-55
2022/02/21 01:05:10;;;;;;;;;4.50;3.00;;;;;18.79;39.65;100578.47;5100061;27;45683;-52
2022/02/21 01:07:36;;;;;;;;;3.00;3.00;;;;;18.78;39.60;100630.16;5100047;27;45412;-49
2022/02/21 01:10:02;;;;;;;;;3.25;3.25;;;;;18.79;39.64;100638.84;5099825;27;45266;-51
2022/02/21 01:12:27;;;;;;;;;3.25;2.00;;;;;18.79;39.23;100650.22;5099667;27;46334;-48
2022/02/21 01:14:52;;;;;;;;;3.00;0.00;;;;;18.78;39.13;100627.53;5100204;27;45901;-49
2022/02/21 01:17:19;;;;;;;;;6.00;3.00;;;;;18.77;39.34;100596.94;5100000;27;45384;-51
2022/02/21 01:19:44;;;;;;;;;4.25;1.25;;;;;18.78;39.10;100610.91;5099869;27;46325;-49
2022/02/21 01:22:10;;;;;;;;;3.00;3.00;;;;;18.76;39.23;100602.25;5099669;27;45355;-54
2022/02/21 01:24:35;;;;;;;;;7.25;3.25;;;;;18.76;38.95;100608.38;5099780;27;45340;-51
2022/02/21 01:27:01;;;;;;;;;4.00;2.75;;;;;18.76;38.89;100613.63;5099761;27;45302;-53
2022/02/21 01:29:26;;;;;;;;;2.50;2.50;;;;;18.76;39.13;100608.38;5098252;27;45895;-50
2022/02/21 01:31:53;;;;;;;;;2.00;2.00;;;;;18.76;39.12;100618.00;5115400;27;45959;-51
2022/02/21 01:34:20;;;;;;;;;4.75;3.00;;;;;18.75;39.30;100611.91;5099958;27;45293;-53
2022/02/21 01:36:46;;;;;;;;;4.25;3.00;;;;;18.74;39.07;100620.72;5100014;27;45358;-49
2022/02/21 01:39:11;;;;;;;;;2.25;2.25;;;;;18.74;38.85;100625.97;5099145;27;46244;-53
2022/02/21 01:41:37;;;;;;;;;3.75;2.00;;;;;18.75;38.66;100634.69;5099303;27;45321;-53
2022/02/21 01:44:04;;;;;;;;;3.00;2.50;;;;;18.73;39.00;100655.78;5099270;27;45455;-55
2022/02/21 01:46:29;;;;;;;;;3.25;3.00;;;;;18.72;39.17;100656.69;5099215;27;45424;-53
2022/02/21 01:48:55;;;;;;;;;3.75;2.00;;;;;18.74;39.01;100709.16;5098988;27;45559;-52
2022/02/21 01:51:20;;;;;;;;;2.25;2.00;;;;;18.74;39.14;100646.97;5099168;27;45247;-48
2022/02/21 01:53:46;;;;;;;;;2.25;2.25;;;;;18.73;39.26;100655.78;5099545;27;45409;-49
2022/02/21 01:56:11;;;;;;;;;2.75;2.00;;;;;18.75;38.92;100646.03;5099464;27;45165;-50
2022/02/21 01:58:36;;;;;;;;;3.00;2.00;;;;;18.78;38.81;100648.53;5098902;27;46294;-53
2022/02/21 02:01:02;;;;;;;;;2.00;2.00;;;;;18.80;38.86;100641.41;5098999;27;45365;-55
2022/02/21 02:03:27;;;;;;;;;3.00;2.00;;;;;18.86;39.15;100645.47;5099085;27;45708;-53
2022/02/21 02:05:53;;;;;;;;;3.75;2.50;;;;;18.89;38.84;100639.25;5099304;27;45417;-52
2022/02/21 02:08:18;;;;;;;;;2.00;1.00;;;;;18.96;38.94;100643.28;5099118;27;45460;-53
2022/02/21 02:10:44;;;;;;;;;4.00;1.00;;;;;19.02;39.08;100629.81;5097553;27;45335;-54
2022/02/21 02:13:09;;;;;;;;;1.25;1.25;;;;;19.09;38.86;100628.59;5098740;27;45232;-50
2022/02/21 02:15:34;;;;;;;;;1.50;1.50;;;;;19.14;38.80;100626.53;5099088;27;45475;-51
2022/02/21 02:18:00;;;;;;;;;2.50;1.00;;;;;19.22;38.87;100635.81;5097419;27;46037;-54
2022/02/21 02:20:26;;;;;;;;;3.25;1.00;;;;;19.26;38.60;100617.19;5098849;27;45337;-52
2022/02/21 02:22:52;;;;;;;;;5.00;1.75;;;;;19.34;38.55;100623.78;5098860;27;45305;-49
2022/02/21 02:25:17;;;;;;;;;1.00;1.00;;;;;19.38;38.44;100615.66;5099329;27;45351;-48
2022/02/21 02:27:42;;;;;;;;;1.00;1.00;;;;;19.41;38.45;100614.63;5098508;27;46419;-51
2022/02/21 02:30:08;;;;;;;;;0.00;0.00;;;;;19.45;38.36;100622.31;5098608;27;45481;-53
2022/02/21 02:32:34;;;;;;;;;3.75;1.00;;;;;19.51;38.44;100620.25;5098520;27;45458;-51
2022/02/21 02:34:59;;;;;;;;;1.75;1.75;;;;;19.53;38.10;100623.66;5098771;27;45515;-51
2022/02/21 02:37:25;;;;;;;;;2.50;1.00;;;;;19.56;38.05;100619.06;5098137;27;49940;-50
2022/02/21 02:39:52;;;;;;;;;4.00;2.00;;;;;19.60;38.33;100625.88;5098767;27;45251;-53
2022/02/21 02:42:18;;;;;;;;;2.25;0.50;;;;;19.63;38.02;100614.31;5098761;27;45226;-52
2022/02/21 02:44:43;;;;;;;;;3.00;1.00;;;;;19.64;37.93;100631.81;5098725;27;45574;-52
2022/02/21 02:47:11;;;;;;;;;1.75;1.50;;;;;19.63;38.15;100616.97;5098082;27;45349;-51
2022/02/21 02:49:37;;;;;;;;;0.00;0.00;;;;;19.67;38.16;100620.25;5098461;27;45937;-54
2022/02/21 02:52:04;;;;;;;;;1.00;1.00;;;;;19.67;38.12;100626.38;5098213;27;45337;-52
2022/02/21 02:54:29;;;;;;;;;2.00;1.00;;;;;19.69;37.86;100628.91;5098413;27;45540;-54
2022/02/21 02:56:55;;;;;;;;;2.00;1.25;;;;;19.70;37.67;100626.19;5097234;27;46281;-53
2022/02/21 02:59:23;;;;;;;;;1.75;1.00;;;;;19.71;38.10;100632.31;5098536;27;45266;-51
2022/02/21 03:01:49;;;;;;;;;3.50;2.25;;;;;19.71;37.54;100630.53;5098458;27;45283;-50
2022/02/21 03:04:14;;;;;;;;;3.00;2.00;;;;;19.72;37.51;100634.84;5098283;27;45525;-54
2022/02/21 03:06:40;;;;;;;;;2.00;1.00;;;;;19.71;37.87;100633.16;5097874;27;47419;-49
2022/02/21 03:09:05;;;;;;;;;1.75;1.00;;;;;19.73;37.86;100630.47;5113887;27;45680;-53
2022/02/21 03:11:31;;;;;;;;;2.75;2.00;;;;;19.73;37.30;100626.03;5097919;27;45755;-51
2022/02/21 03:13:59;;;;;;;;;2.00;2.00;;;;;19.73;37.70;100618.16;5098120;27;45518;-53
2022/02/21 03:16:24;;;;;;;;;2.25;2.00;;;;;19.73;37.70;100618.16;5097979;27;46332;-53
2022/02/21 03:18:50;;;;;;;;;1.50;0.50;;;;;19.73;37.41;100609.41;5098181;27;45434;-50
2022/02/21 03:21:15;;;;;;;;;1.00;1.00;;;;;19.72;37.74;100613.81;5098015;27;45262;-51
2022/02/21 03:23:40;;;;;;;;;3.50;1.00;;;;;19.72;37.34;100610.34;5098170;27;45591;-53
2022/02/21 03:26:06;;;;;;;;;3.25;3.00;;;;;19.71;37.40;100620.00;5097777;27;46108;-54
2022/02/21 03:28:32;;;;;;;;;2.75;1.00;;;;;19.70;37.55;100628.81;5097740;27;45396;-52
2022/02/21 03:30:57;;;;;;;;;3.00;2.00;;;;;19.71;37.47;100634.94;5097759;27;45245;-53
2022/02/21 03:33:22;;;;;;;;;1.50;1.00;;;;;19.70;37.60;100628.81;5098089;27;45540;-54
2022/02/21 03:35:48;;;;;;;;;4.50;2.00;;;;;19.68;37.70;100628.06;5097568;27;45351;-52
2022/02/21 03:38:14;;;;;;;;;1.75;1.75;;;;;19.68;37.05;100629.84;5097591;27;45346;-54
2022/02/21 03:40:40;;;;;;;;;2.00;1.50;;;;;19.68;37.03;100627.22;5097881;27;45479;-53
2022/02/21 03:43:05;;;;;;;;;2.75;1.00;;;;;19.67;37.39;100636.91;5097969;27;45502;-52
2022/02/21 03:45:31;;;;;;;;;3.00;2.00;;;;;19.63;36.98;100627.47;5097334;27;46067;-54
2022/02/21 03:47:56;;;;;;;;;2.75;2.00;;;;;19.65;36.72;100633.50;5097547;27;45410;-53
2022/02/21 03:50:23;;;;;;;;;2.50;1.00;;;;;19.64;36.76;100626.53;5097975;27;45579;-52
2022/02/21 03:52:48;;;;;;;;;2.00;1.75;;;;;19.65;36.87;100624.75;5097604;27;45377;-53
2022/02/21 03:55:14;;;;;;;;;4.00;2.25;;;;;19.62;37.01;100625.78;5097101;27;46166;-49
2022/02/21 03:57:40;;;;;;;;;2.00;1.00;;;;;19.59;36.83;100623.31;5097269;27;45351;-54
2022/02/21 04:00:08;;;;;;;;;1.50;1.50;;;;;19.62;36.80;100638.91;5097258;27;45409;-51
2022/02/21 04:02:33;;;;;;;;;3.00;1.00;;;;;19.59;37.02;100647.84;5097438;27;45472;-53
2022/02/21 04:05:01;;;;;;;;;2.50;2.25;;;;;19.60;37.38;100653.91;5097124;27;45646;-53
2022/02/21 04:07:27;;;;;;;;;1.50;1.00;;;;;19.58;36.72;100648.75;5096861;27;45810;-52
2022/02/21 04:09:52;;;;;;;;;1.25;1.00;;;;;19.56;36.96;100660.31;5097610;27;45512;-53
2022/02/21 04:12:17;;;;;;;;;0.50;0.50;;;;;19.56;37.22;100655.88;5097058;27;45437;-54
2022/02/21 04:14:43;;;;;;;;;2.75;1.00;;;;;19.56;37.05;100652.41;5097030;27;46139;-56
2022/02/21 04:17:08;;;;;;;;;2.25;1.25;;;;;19.55;36.97;100653.34;5097075;27;45480;-54
2022/02/21 04:19:33;;;;;;;;;2.00;1.00;;;;;19.54;36.52;100646.38;5097057;27;45378;-52
2022/02/21 04:21:59;;;;;;;;;3.00;1.75;;;;;19.54;36.95;100647.22;5095913;27;45483;-53
2022/02/21 04:24:25;;;;;;;;;2.50;0.00;;;;;19.53;36.72;100653.41;5097254;27;45444;-52
2022/02/21 04:26:50;;;;;;;;;2.00;0.75;;;;;19.52;36.91;100664.00;5096900;27;45260;-52
2022/02/21 04:29:16;;;;;;;;;3.25;1.00;;;;;19.50;36.86;100652.72;5096913;27;45239;-53
2022/02/21 04:31:41;;;;;;;;;1.75;1.75;;;;;19.49;36.98;100632.63;5097252;27;45215;-48
2022/02/21 04:34:06;;;;;;;;;0.00;0.00;;;;;19.49;36.67;100640.50;5096720;27;45355;-50
2022/02/21 04:36:34;;;;;;;;;4.50;1.25;;;;;19.45;36.55;100645.97;5096797;27;45236;-53
2022/02/21 04:39:00;;;;;;;;;4.00;1.00;;;;;19.44;36.93;100646.88;5096912;27;45377;-50
2022/02/21 04:41:26;;;;;;;;;2.00;1.00;;;;;19.44;37.04;100639.00;5097259;27;45419;-50
2022/02/21 04:43:53;;;;;;;;;3.00;2.00;;;;;19.43;36.79;100634.66;5096461;27;46681;-54
2022/02/21 04:46:19;;;;;;;;;4.00;2.25;;;;;19.41;36.76;100626.00;5096693;27;45399;-53
2022/02/21 04:48:45;;;;;;;;;2.00;2.00;;;;;19.42;36.88;100646.13;5096770;27;45449;-51
2022/02/21 04:51:10;;;;;;;;;1.50;0.50;;;;;19.40;36.71;100642.72;5097084;27;45389;-53
2022/02/21 04:53:35;;;;;;;;;4.00;2.00;;;;;19.40;36.91;100650.59;5096347;27;46029;-52
2022/02/21 04:56:01;;;;;;;;;2.25;2.00;;;;;19.39;36.57;100648.06;5095200;27;45432;-55
2022/02/21 04:58:26;;;;;;;;;3.25;0.25;;;;;19.39;36.61;100632.28;5096802;27;45160;-54
2022/02/21 05:00:51;;;;;;;;;2.75;1.00;;;;;19.37;36.99;100632.34;5096806;27;45302;-54
2022/02/21 05:03:17;;;;;;;;;1.25;0.00;;;;;19.35;36.92;100623.69;5096377;27;46097;-53
2022/02/21 05:05:42;;;;;;;;;1.25;1.00;;;;;19.35;36.57;100639.47;5095070;27;45255;-55
2022/02/21 05:08:08;;;;;;;;;1.50;1.50;;;;;19.35;36.92;100636.84;5096516;27;45369;-54
2022/02/21 05:10:33;;;;;;;;;1.00;1.00;;;;;19.34;36.64;100642.19;5096597;27;45310;-51
2022/02/21 05:12:59;;;;;;;;;2.00;0.50;;;;;19.31;36.54;100641.41;5094985;27;47063;-55
2022/02/21 05:15:24;;;;;;;;;1.00;1.00;;;;;19.33;36.50;100643.13;5096571;27;45290;-53
2022/02/21 05:17:49;;;;;;;;;2.75;1.75;;;;;19.30;36.66;100641.50;5096537;27;45281;-54
2022/02/21 05:20:15;;;;;;;;;1.00;1.00;;;;;19.30;36.47;100638.88;5096596;27;45248;-52
2022/02/21 05:22:40;;;;;;;;;1.00;1.00;;;;;19.30;36.87;100644.13;5099595;27;46188;-49
2022/02/21 05:25:06;;;;;;;;;2.50;2.00;;;;;19.28;36.74;100651.25;5099596;27;45405;-49
2022/02/21 05:27:34;;;;;;;;;2.00;1.00;;;;;19.28;36.60;100652.13;5099743;27;45380;-55
2022/02/21 05:29:59;;;;;;;;;0.25;0.25;;;;;19.27;36.89;100637.28;5100128;27;45789;-52
2022/02/21 05:32:25;;;;;;;;;2.75;0.75;;;;;19.26;36.65;100640.81;5099746;27;45482;-54
2022/02/21 05:34:51;;;;;;;;;1.00;1.00;;;;;19.27;36.28;100641.66;5099552;27;45401;-55
2022/02/21 05:37:16;;;;;;;;;0.00;0.00;;;;;19.26;36.43;100639.97;5099665;27;45297;-52
2022/02/21 05:39:42;;;;;;;;;2.00;0.75;;;;;19.25;36.37;100627.75;5099658;27;45682;-52
2022/02/21 05:42:07;;;;;;;;;1.25;1.25;;;;;19.23;36.24;100648.88;5099314;27;46145;-49
2022/02/21 05:44:33;;;;;;;;;3.50;1.00;;;;;19.22;36.43;100641.91;5099435;27;45313;-52
2022/02/21 05:46:59;;;;;;;;;2.75;2.75;;;;;19.21;36.36;100642.00;5099767;27;45356;-52
2022/02/21 05:49:24;;;;;;;;;1.50;0.75;;;;;19.22;36.31;100646.31;5099652;27;45299;-53
2022/02/21 05:51:49;;;;;;;;;0.50;0.50;;;;;19.19;36.59;100635.97;5099143;27;46454;-48
2022/02/21 05:54:15;;;;;;;;;2.00;1.00;;;;;19.21;36.73;100636.75;5097821;27;45368;-53
2022/02/21 05:56:40;;;;;;;;;2.25;0.75;;;;;19.19;36.40;100638.59;5099257;27;45278;-55
2022/02/21 05:59:05;;;;;;;;;0.00;0.00;;;;;19.18;36.44;100631.66;5099413;27;45331;-51
2022/02/21 06:01:31;;;;;;;;;0.50;0.50;;;;;19.15;36.39;100636.13;5099190;27;45995;-53
2022/02/21 06:03:56;;;;;;;;;1.50;1.50;;;;;19.16;36.48;100637.81;5097933;27;45374;-53
2022/02/21 06:06:21;;;;;;;;;1.00;1.00;;;;;19.13;36.29;100648.47;5099174;27;45307;-54
2022/02/21 06:08:47;;;;;;;;;1.50;1.25;;;;;19.15;36.27;100661.56;5099139;27;45617;-50
2022/02/21 06:11:12;;;;;;;;;1.00;0.00;;;;;19.14;36.20;100660.69;5098851;27;46196;-52
2022/02/21 06:13:38;;;;;;;;;6.00;1.00;;;;;19.11;36.48;100666.13;5098369;27;45390;-53
2022/02/21 06:16:04;;;;;;;;;2.00;0.75;;;;;19.10;36.12;100669.69;5098963;27;45313;-52
2022/02/21 06:18:29;;;;;;;;;2.00;0.50;;;;;19.11;36.08;100666.13;5099432;27;45564;-54
2022/02/21 06:20:55;;;;;;;;;1.50;0.50;;;;;19.08;36.46;100661.03;5098548;27;46246;-55
2022/02/21 06:23:20;;;;;;;;;1.25;1.25;;;;;19.10;36.51;100667.06;5098792;27;45366;-55
2022/02/21 06:25:47;;;;;;;;;0.25;0.25;;;;;19.10;36.30;100668.81;5098790;27;45234;-52
2022/02/21 06:28:12;;;;;;;;;2.50;1.00;;;;;19.09;36.33;100672.38;5098842;27;45571;-52
2022/02/21 06:30:39;;;;;;;;;4.75;1.00;;;;;19.09;36.60;100670.59;5098606;27;45965;-51
2022/02/21 06:33:05;;;;;;;;;2.00;1.00;;;;;19.07;36.45;100679.50;5098491;27;45621;-51
2022/02/21 06:35:30;;;;;;;;;1.00;1.00;;;;;19.08;36.59;100670.66;5099163;27;45459;-51
2022/02/21 06:37:59;;;;;;;;;0.75;0.00;;;;;19.08;36.52;100671.53;5098805;27;45306;-54
2022/02/21 06:40:25;;;;;;;;;0.00;0.00;;;;;19.07;36.23;100682.97;5098341;27;46377;-51
2022/02/21 06:42:50;;;;;;;;;1.50;0.00;;;;;19.06;36.53;100675.19;5098370;27;45438;-49
2022/02/21 06:45:16;;;;;;;;;2.00;1.00;;;;;19.06;36.29;100683.91;5098582;27;45222;-53
2022/02/21 06:47:42;;;;;;;;;2.00;0.00;;;;;19.05;36.21;100687.44;5098712;27;45521;-52
2022/02/21 06:50:08;;;;;;;;;0.75;0.75;;;;;19.05;36.34;100692.69;5098307;27;45314;-52
2022/02/21 06:52:34;;;;;;;;;0.50;0.50;;;;;19.03;36.58;100678.78;5098357;27;45712;-51
2022/02/21 06:55:00;;;;;;;;;0.00;0.00;;;;;19.03;36.61;100691.94;5098651;27;45311;-52
2022/02/21 06:57:26;;;;;;;;;2.75;1.00;;;;;19.05;36.14;100697.13;5098675;27;45584;-52
2022/02/21 06:59:52;;;;;;;;;4.00;0.25;;;;;19.06;36.49;100710.16;5098211;27;46158;-53
2022/02/21 07:02:17;;;;;;;;;3.25;0.75;;;;;19.04;36.06;100712.00;5096876;27;45738;-53
2022/02/21 07:04:43;;;;;;;;;2.00;1.00;;;;;19.03;36.13;100710.31;5098228;27;45305;-53
2022/02/21 07:07:08;;;;;;;;;2.00;1.00;;;;;19.04;36.47;100712.00;5098502;27;45401;-51
2022/02/21 07:09:34;;;;;;;;;0.00;0.00;;;;;19.03;36.29;100730.50;5098194;27;46114;-51
2022/02/21 07:11:59;;;;;;;;;1.50;0.25;;;;;19.02;36.28;100727.00;5097799;27;45578;-53
2022/02/21 07:14:25;;;;;;;;;0.00;0.00;;;;;19.02;36.29;100726.16;5096392;27;45375;-52
2022/02/21 07:16:51;;;;;;;;;2.00;1.00;;;;;19.02;36.50;100718.28;5098098;27;45436;-52
2022/02/21 07:19:17;;;;;;;;;0.00;0.00;;;;;19.00;36.37;100721.00;5113589;27;48399;-54
2022/02/21 07:21:42;;;;;;;;;1.25;0.75;;;;;19.02;36.25;100720.91;5097821;27;45352;-52
2022/02/21 07:24:09;;;;;;;;;0.00;0.00;;;;;19.00;36.41;100721.84;5097885;27;45286;-52
2022/02/21 07:26:34;;;;;;;;;1.00;0.00;;;;;18.98;36.29;100722.84;5098448;27;45205;-53
2022/02/21 07:29:00;;;;;;;;;0.00;0.00;;;;;19.02;36.49;100734.03;5097619;27;46675;-50
2022/02/21 07:31:25;;;;;;;;;0.00;0.00;;;;;19.01;36.33;100743.72;5097977;27;45311;-50
2022/02/21 07:33:50;;;;;;;;;0.25;0.25;;;;;19.00;36.20;100728.88;5097975;27;45373;-49
2022/02/21 07:36:16;;;;;;;;;1.00;0.25;;;;;19.01;36.42;100738.47;5097824;27;45433;-55
2022/02/21 07:38:41;;;;;;;;;0.25;0.25;;;;;19.00;36.50;100736.75;5097388;27;50087;-56
2022/02/21 07:41:06;;;;;;;;;1.00;0.00;;;;;18.99;36.37;100733.25;5097541;27;45358;-52
2022/02/21 07:43:32;;;;;;;;;1.75;0.50;;;;;18.98;35.97;100713.19;5097510;27;45308;-50
2022/02/21 07:45:57;;;;;;;;;1.00;1.00;;;;;18.99;36.32;100712.25;5097788;27;46085;-56
2022/02/21 07:48:22;;;;;;;;;1.75;1.00;;;;;19.00;36.14;100708.69;5097365;27;46245;-53
2022/02/21 07:50:48;;;;;;;;;0.25;0.25;;;;;18.98;36.20;100707.09;5097319;27;45376;-56
2022/02/21 07:53:13;;;;;;;;;1.00;1.00;;;;;18.97;36.36;100721.13;5097501;27;45381;-54
2022/02/21 07:55:39;;;;;;;;;0.00;0.00;;;;;18.98;35.92;100725.47;5097639;27;45327;-52
2022/02/21 07:58:04;;;;;;;;;0.00;0.00;;;;;18.96;36.29;100719.44;5097826;27;45471;-54
2022/02/21 08:00:30;;;;;;;;;1.00;1.00;;;;;18.98;36.31;100730.72;5097273;27;45427;-53
2022/02/21 08:02:55;;;;;;;;;1.00;0.75;;;;;18.97;36.17;100729.84;5097284;27;45333;-52
2022/02/21 08:05:21;;;;;;;;;0.00;0.00;;;;;18.96;36.16;100735.19;5096278;27;45393;-51
2022/02/21 08:07:46;;;;;;;;;3.50;2.00;;;;;18.97;36.09;100731.66;5097029;27;46103;-52
2022/02/21 08:10:13;;;;;;;;;0.50;0.50;;;;;18.95;35.84;100738.75;5097027;27;45332;-51
2022/02/21 08:12:38;;;;;;;;;1.00;0.00;;;;;18.94;35.94;100730.03;5097034;27;45242;-52
2022/02/21 08:15:05;;;;;;;;;0.75;0.00;;;;;18.95;35.84;100723.00;5097613;27;45590;-53
2022/02/21 08:17:41;;;;;;;;;0.50;0.00;;;;;18.94;36.22;100722.16;5096904;27;47005;-53
2022/02/21 08:20:07;;;;;;;;;1.00;0.00;;;;;18.95;36.21;100739.63;5097248;27;45324;-53
2022/02/21 08:22:32;;;;;;;;;3.00;1.25;;;;;18.95;35.96;100738.75;5096961;27;45401;-52
2022/02/21 08:24:57;;;;;;;;;0.00;0.00;;;;;18.95;36.23;100738.75;5097275;27;45325;-52
2022/02/21 08:27:23;;;;;;;;;2.00;1.00;;;;;18.93;36.12;100736.22;5096765;27;46134;-54
2022/02/21 08:29:48;;;;;;;;;1.75;0.00;;;;;18.92;36.05;100750.22;5096916;27;45429;-51
2022/02/21 08:32:13;;;;;;;;;1.00;1.00;;;;;18.95;35.85;100744.88;5096557;27;53283;-54
2022/02/21 08:34:40;;;;;;;;;1.25;0.75;;;;;18.95;36.09;100744.88;5097169;27;45532;-53
2022/02/21 08:37:06;;;;;;;;;0.50;0.50;;;;;18.95;36.10;100720.38;5096829;27;45641;-47
2022/02/21 08:39:32;;;;;;;;;2.75;1.00;;;;;18.94;36.08;100742.31;5095524;27;45282;-51
2022/02/21 08:41:58;;;;;;;;;0.50;0.50;;;;;18.93;35.99;100741.47;5096743;27;45359;-52
2022/02/21 08:44:25;;;;;;;;;0.25;0.25;;;;;18.93;36.16;100753.69;5096992;27;45279;-52
2022/02/21 08:46:50;;;;;;;;;0.00;0.00;;;;;18.92;35.98;100746.75;5096421;27;45341;-50
2022/02/21 08:49:16;;;;;;;;;0.25;0.25;;;;;18.98;35.94;100762.25;5095330;27;45501;-52
2022/02/21 08:51:41;;;;;;;;;1.25;1.00;;;;;19.02;36.04;100755.88;5096636;27;45319;-52
2022/02/21 08:54:09;;;;;;;;;2.00;1.50;;;;;19.03;35.86;100756.75;5097041;27;45286;-51
2022/02/21 08:56:34;;;;;;;;;0.25;0.00;;;;;19.10;36.27;100753.75;5099904;27;47169;-52
2022/02/21 08:59:00;;;;;;;;;4.00;2.25;;;;;19.16;36.34;100740.28;5100006;27;45308;-50
2022/02/21 09:01:25;;;;;;;;;3.00;0.00;;;;;19.25;35.83;100753.88;5100388;27;45395;-51
2022/02/21 09:03:50;;;;;;;;;1.50;1.00;;;;;19.30;36.32;100757.97;5100492;27;45418;-53
2022/02/21 09:06:16;;;;;;;;;1.25;1.25;;;;;19.36;36.06;100754.16;5115626;27;45998;-50
2022/02/21 09:08:42;;;;;;;;;1.25;1.25;;;;;19.45;36.01;100758.13;5099904;27;45336;-51
2022/02/21 09:11:07;;;;;;;;;2.00;0.25;;;;;19.52;36.31;100756.03;5100440;27;45310;-53
2022/02/21 09:13:32;;;;;;;;;2.25;1.00;;;;;19.57;36.29;100756.59;5099861;27;45337;-51
2022/02/21 09:15:58;;;;;;;;;2.50;1.00;;;;;19.62;35.72;100752.81;5099835;27;46041;-52
2022/02/21 09:18:23;;;;;;;;;3.50;1.50;;;;;19.64;35.79;100750.13;5099569;27;46931;-51
2022/02/21 09:20:48;;;;;;;;;2.00;0.00;;;;;19.70;35.86;100754.19;5098603;27;45357;-52
2022/02/21 09:23:14;;;;;;;;;2.75;1.50;;;;;19.75;35.78;100755.66;5098623;27;45280;-52
2022/02/21 09:25:40;;;;;;;;;2.50;1.25;;;;;19.79;35.93;100761.59;5099773;27;45984;-53
2022/02/21 09:28:05;;;;;;;;;2.25;1.00;;;;;19.83;36.01;100757.88;5098223;27;45267;-53
2022/02/21 09:30:31;;;;;;;;;2.25;1.00;;;;;19.85;35.70;100747.28;5098259;27;45633;-50
2022/02/21 09:32:56;;;;;;;;;2.50;1.25;;;;;19.87;35.83;100740.19;5099715;27;45441;-51
2022/02/21 09:35:23;;;;;;;;;1.75;1.75;;;;;19.89;35.42;100725.16;5099455;27;46044;-50
2022/02/21 09:37:49;;;;;;;;;0.25;0.25;;;;;19.89;35.54;100733.91;5099425;27;45345;-52
2022/02/21 09:40:15;;;;;;;;;1.25;1.25;;;;;19.91;35.37;100747.81;5099654;27;45420;-51
2022/02/21 09:42:42;;;;;;;;;2.00;2.00;;;;;19.93;35.53;100743.34;5100109;27;45595;-53
2022/02/21 09:45:09;;;;;;;;;2.25;1.00;;;;;19.96;35.08;100749.34;5098347;27;47399;-52
2022/02/21 09:47:34;;;;;;;;;0.50;0.50;;;;;19.97;35.57;100728.22;5099346;27;45747;-52
2022/02/21 09:50:00;;;;;;;;;1.00;1.00;;;;;19.97;35.34;100743.16;5099333;27;45235;-51
2022/02/21 09:52:27;;;;;;;;;1.75;1.50;;;;;19.98;35.54;100750.97;5099621;27;45575;-54
2022/02/21 09:54:54;;;;;;;;;0.25;0.25;;;;;19.98;35.11;100750.97;5099239;27;45446;-54
2022/02/21 09:57:20;;;;;;;;;0.50;0.50;;;;;20.00;35.26;100748.25;5099102;27;45463;-51
2022/02/21 09:59:45;;;;;;;;;0.75;0.75;;;;;20.01;35.07;100747.31;5099194;27;45309;-49
2022/02/21 10:02:18;;;;;;;;;1.00;1.00;;;;;20.01;35.58;100756.03;5099791;27;45453;-53
2022/02/21 10:04:43;;;;;;;;;1.00;1.00;;;;;20.02;35.40;100764.81;5099274;27;45433;-51
2022/02/21 10:07:09;;;;;;;;;1.25;1.00;;;;;20.01;35.03;100761.31;5098922;27;45388;-52
2022/02/21 10:09:40;;;;;;;;;1.00;1.00;;;;;19.99;35.02;100750.03;5099132;27;45401;-52
2022/02/21 10:12:06;;;;;;;;;1.00;1.00;;;;;20.01;34.88;100766.56;5099000;27;45381;-54
2022/02/21 10:14:32;;;;;;;;;1.50;1.50;;;;;19.99;34.92;100767.59;5098635;27;46544;-52
2022/02/21 10:17:00;;;;;;;;;1.00;1.00;;;;;20.00;34.90;100766.66;5098821;27;45481;-54
2022/02/21 10:19:30;;;;;;;;;3.00;1.75;;;;;20.00;35.01;100762.25;5098939;27;45354;-52
2022/02/21 10:25:21;;;;;;;;;2.25;2.25;;;;;19.96;35.16;100763.34;5099200;27;45411;-52
2022/02/21 10:27:46;;;;;;;;;2.75;1.00;;;;;19.97;34.96;100770.31;5099814;27;45338;-53
2022/02/21 10:30:16;;;;;;;;;1.00;1.00;;;;;19.98;35.01;100765.88;5100530;27;45395;-55
2022/02/21 10:32:43;;;;;;;;;1.00;1.00;;;;;19.97;34.77;100779.97;5100260;27;45436;-52
2022/02/21 10:35:16;;;;;;;;;4.00;2.00;;;;;19.96;34.87;100789.66;5100168;27;46225;-54
2022/02/21 10:38:03;;;;;;;;;2.75;2.75;;;;;19.96;34.82;100773.00;5102393;27;45741;-53
2022/02/21 10:40:38;;;;;;;;;0.75;0.75;;;;;19.94;34.64;100775.72;5102218;27;45436;-53
2022/02/21 10:43:05;;;;;;;;;4.00;1.00;;;;;19.92;34.75;100786.34;5101667;27;45303;-50
2022/02/21 10:45:32;;;;;;;;;3.75;2.50;;;;;19.92;34.78;100785.47;5100973;27;46313;-50
2022/02/21 10:48:04;;;;;;;;;0.50;0.50;;;;;19.92;34.62;100782.84;5099534;27;45794;-51
2022/02/21 10:50:32;;;;;;;;;2.00;1.00;;;;;19.88;34.73;100787.44;5101653;27;45288;-53
2022/02/21 10:52:58;;;;;;;;;2.25;1.75;;;;;19.88;34.75;100776.06;5099805;27;45506;-53
2022/02/21 10:55:34;;;;;;;;;3.25;1.75;;;;;19.88;34.49;100786.59;5099200;27;45623;-53
2022/02/21 10:57:59;;;;;;;;;1.50;1.25;;;;;19.88;34.40;100781.34;5099337;27;45413;-53
2022/02/21 11:00:25;;;;;;;;;1.75;1.00;;;;;19.86;34.72;100791.91;5099807;27;45348;-54
2022/02/21 11:02:51;;;;;;;;;3.25;1.25;;;;;19.87;34.68;100795.41;5099651;27;45526;-52
2022/02/21 11:05:17;;;;;;;;;2.50;0.00;;;;;19.88;34.39;100786.59;5099524;27;46181;-50
2022/02/21 11:07:45;;;;;;;;;2.00;2.00;;;;;19.88;34.79;100765.56;5099102;27;45334;-53
2022/02/21 11:10:11;;;;;;;;;5.25;3.00;;;;;19.86;34.73;100777.94;5099671;27;45279;-52
2022/02/21 11:12:39;;;;;;;;;2.25;2.25;;;;;19.82;34.56;100777.22;5099472;27;45433;-53
2022/02/21 11:15:06;;;;;;;;;0.25;0.00;;;;;19.84;34.34;100790.28;5100994;27;46966;-52
2022/02/21 11:17:31;;;;;;;;;3.00;2.50;;;;;19.82;34.68;100773.72;5099716;27;45831;-51
2022/02/21 11:19:57;;;;;;;;;1.75;1.00;;;;;19.83;34.57;100788.56;5105302;27;45274;-53
2022/02/21 11:22:24;;;;;;;;;3.00;1.00;;;;;19.81;34.42;100791.28;5102411;27;45317;-53